sensor_id;sensor_type;location;lat;lon;timestamp;P1;durP1;ratioP1;P2;durP2;ratioP2
65053;SDS011;51639;47.828;35.038;2022-08-21T00:02:22;27.80;;;5.50;;
65053;SDS011;51639;47.828;35.038;2022-08-21T00:17:26;23.10;;;7.65;;
65053;SDS011;51639;47.828;35.038;2022-08-21T00:32:28;26.00;;;6.70;;
65053;SDS011;51639;47.828;35.038;2022-08-21T00:47:31;17.67;;;5.20;;
65053;SDS011;51639;47.828;35.038;2022-08-21T01:02:33;18.05;;;5.65;;
65053;SDS011;51639;47.828;35.038;2022-08-21T01:17:36;25.92;;;6.95;;
65053;SDS011;51639;47.828;35.038;2022-08-21T01:32:39;26.30;;;7.50;;
65053;SDS011;51639;47.828;35.038;2022-08-21T01:47:41;29.33;;;8.50;;
65053;SDS011;51639;47.828;35.038;2022-08-21T02:02:44;38.57;;;17.80;;
65053;SDS011;51639;47.828;35.038;2022-08-21T02:17:48;23.50;;;9.15;;
65053;SDS011;51639;47.828;35.038;2022-08-21T02:32:51;20.42;;;5.65;;
65053;SDS011;51639;47.828;35.038;2022-08-21T02:47:54;17.85;;;5.55;;
65053;SDS011;51639;47.828;35.038;2022-08-21T03:03:04;20.08;;;5.00;;
65053;SDS011;51639;47.828;35.038;2022-08-21T03:18:07;16.83;;;4.82;;
65053;SDS011;51639;47.828;35.038;2022-08-21T03:33:10;19.07;;;8.17;;
65053;SDS011;51639;47.828;35.038;2022-08-21T03:48:15;34.80;;;10.65;;
65053;SDS011;51639;47.828;35.038;2022-08-21T04:03:17;23.10;;;8.07;;
65053;SDS011;51639;47.828;35.038;2022-08-21T04:18:21;15.90;;;6.97;;
65053;SDS011;51639;47.828;35.038;2022-08-21T04:33:23;25.63;;;6.68;;
65053;SDS011;51639;47.828;35.038;2022-08-21T04:48:26;23.52;;;8.73;;
65053;SDS011;51639;47.828;35.038;2022-08-21T05:03:28;22.50;;;6.35;;
65053;SDS011;51639;47.828;35.038;2022-08-21T05:18:32;21.10;;;6.78;;
65053;SDS011;51639;47.828;35.038;2022-08-21T05:33:35;26.73;;;10.90;;
65053;SDS011;51639;47.828;35.038;2022-08-21T05:48:40;28.20;;;7.57;;
65053;SDS011;51639;47.828;35.038;2022-08-21T06:03:42;26.00;;;7.10;;
65053;SDS011;51639;47.828;35.038;2022-08-21T06:18:44;26.20;;;7.05;;
65053;SDS011;51639;47.828;35.038;2022-08-21T06:33:47;24.80;;;7.83;;
65053;SDS011;51639;47.828;35.038;2022-08-21T06:48:49;37.15;;;7.20;;
65053;SDS011;51639;47.828;35.038;2022-08-21T07:03:51;40.60;;;7.20;;
65053;SDS011;51639;47.828;35.038;2022-08-21T07:18:53;60.22;;;8.50;;
65053;SDS011;51639;47.828;35.038;2022-08-21T07:33:55;59.53;;;11.63;;
65053;SDS011;51639;47.828;35.038;2022-08-21T07:48:57;62.20;;;9.88;;
65053;SDS011;51639;47.828;35.038;2022-08-21T08:03:59;47.53;;;8.90;;
65053;SDS011;51639;47.828;35.038;2022-08-21T08:19:01;49.22;;;9.00;;
65053;SDS011;51639;47.828;35.038;2022-08-21T08:34:04;79.32;;;30.35;;
65053;SDS011;51639;47.828;35.038;2022-08-21T08:49:09;52.08;;;10.00;;
65053;SDS011;51639;47.828;35.038;2022-08-21T09:04:24;38.65;;;7.18;;
65053;SDS011;51639;47.828;35.038;2022-08-21T09:34:56;46.50;;;16.95;;
65053;SDS011;51639;47.828;35.038;2022-08-21T09:50:25;45.92;;;8.90;;
65053;SDS011;51639;47.828;35.038;2022-08-21T10:05:30;30.38;;;5.03;;
65053;SDS011;51639;47.828;35.038;2022-08-21T10:20:37;23.92;;;4.45;;
65053;SDS011;51639;47.828;35.038;2022-08-21T10:35:53;20.15;;;4.20;;
65053;SDS011;51639;47.828;35.038;2022-08-21T10:51:28;22.83;;;4.50;;
65053;SDS011;51639;47.828;35.038;2022-08-21T11:06:57;18.83;;;3.10;;
65053;SDS011;51639;47.828;35.038;2022-08-21T11:53:09;17.00;;;2.08;;
65053;SDS011;51639;47.828;35.038;2022-08-21T12:08:28;32.78;;;2.60;;
65053;SDS011;51639;47.828;35.038;2022-08-21T12:23:46;22.88;;;2.72;;
65053;SDS011;51639;47.828;35.038;2022-08-21T12:38:51;23.23;;;2.97;;
65053;SDS011;51639;47.828;35.038;2022-08-21T12:53:57;13.93;;;2.45;;
65053;SDS011;51639;47.828;35.038;2022-08-21T13:09:04;13.55;;;2.40;;
65053;SDS011;51639;47.828;35.038;2022-08-21T13:24:32;15.20;;;1.88;;
65053;SDS011;51639;47.828;35.038;2022-08-21T13:39:48;19.48;;;3.95;;
65053;SDS011;51639;47.828;35.038;2022-08-21T13:55:06;15.20;;;2.25;;
65053;SDS011;51639;47.828;35.038;2022-08-21T14:10:16;13.00;;;2.17;;
65053;SDS011;51639;47.828;35.038;2022-08-21T14:40:26;23.02;;;5.20;;
65053;SDS011;51639;47.828;35.038;2022-08-21T14:55:28;19.48;;;3.53;;
65053;SDS011;51639;47.828;35.038;2022-08-21T15:10:30;16.35;;;2.17;;
65053;SDS011;51639;47.828;35.038;2022-08-21T15:25:36;14.30;;;2.35;;
65053;SDS011;51639;47.828;35.038;2022-08-21T15:40:42;12.55;;;2.67;;
65053;SDS011;51639;47.828;35.038;2022-08-21T15:55:53;14.90;;;2.87;;
65053;SDS011;51639;47.828;35.038;2022-08-21T16:10:55;7.47;;;2.05;;
65053;SDS011;51639;47.828;35.038;2022-08-21T16:25:58;14.85;;;3.00;;
65053;SDS011;51639;47.828;35.038;2022-08-21T16:41:00;11.55;;;1.70;;
65053;SDS011;51639;47.828;35.038;2022-08-21T16:56:05;12.23;;;2.90;;
65053;SDS011;51639;47.828;35.038;2022-08-21T17:11:10;12.73;;;2.90;;
65053;SDS011;51639;47.828;35.038;2022-08-21T17:26:38;18.13;;;4.50;;
65053;SDS011;51639;47.828;35.038;2022-08-21T17:56:43;21.08;;;2.75;;
65053;SDS011;51639;47.828;35.038;2022-08-21T18:11:45;16.67;;;4.18;;
65053;SDS011;51639;47.828;35.038;2022-08-21T18:26:47;14.25;;;3.42;;
65053;SDS011;51639;47.828;35.038;2022-08-21T18:41:50;17.65;;;2.67;;
65053;SDS011;51639;47.828;35.038;2022-08-21T18:56:53;19.13;;;5.00;;
65053;SDS011;51639;47.828;35.038;2022-08-21T19:11:55;9.68;;;2.55;;
65053;SDS011;51639;47.828;35.038;2022-08-21T19:26:58;22.20;;;3.85;;
65053;SDS011;51639;47.828;35.038;2022-08-21T19:42:00;14.50;;;1.77;;
65053;SDS011;51639;47.828;35.038;2022-08-21T19:57:03;15.63;;;2.50;;
65053;SDS011;51639;47.828;35.038;2022-08-21T20:12:07;12.30;;;3.22;;
65053;SDS011;51639;47.828;35.038;2022-08-21T20:27:15;19.48;;;3.13;;
65053;SDS011;51639;47.828;35.038;2022-08-21T20:42:22;22.08;;;3.70;;
65053;SDS011;51639;47.828;35.038;2022-08-21T21:12:36;22.55;;;5.07;;
65053;SDS011;51639;47.828;35.038;2022-08-21T21:27:43;23.92;;;3.08;;
65053;SDS011;51639;47.828;35.038;2022-08-21T21:42:54;21.80;;;2.78;;
65053;SDS011;51639;47.828;35.038;2022-08-21T22:29:15;28.33;;;3.95;;
65053;SDS011;51639;47.828;35.038;2022-08-21T22:44:23;37.55;;;4.70;;
65053;SDS011;51639;47.828;35.038;2022-08-21T22:59:29;36.30;;;7.20;;
65053;SDS011;51639;47.828;35.038;2022-08-21T23:14:35;35.53;;;5.10;;
65053;SDS011;51639;47.828;35.038;2022-08-21T23:29:53;35.50;;;4.33;;
